sensor_id;sensor_type;location;lat;lon;timestamp;temperature;humidity
12827;DHT22;66927;48.812;9.118;2024-01-15T00:01:42;-0.50;99.90
12827;DHT22;66927;48.812;9.118;2024-01-15T00:04:08;-0.60;99.90
12827;DHT22;66927;48.812;9.118;2024-01-15T00:06:34;-0.60;99.90
12827;DHT22;66927;48.812;9.118;2024-01-15T00:09:00;-0.50;99.90
12827;DHT22;66927;48.812;9.118;2024-01-15T00:11:25;-0.60;99.90
12827;DHT22;66927;48.812;9.118;2024-01-15T00:13:51;-0.60;99.90
12827;DHT22;66927;48.812;9.118;2024-01-15T00:16:17;-0.70;99.90
12827;DHT22;66927;48.812;9.118;2024-01-15T00:18:43;-0.80;99.90
12827;DHT22;66927;48.812;9.118;2024-01-15T00:21:09;-0.80;99.90
12827;DHT22;66927;48.812;9.118;2024-01-15T00:23:35;-0.90;99.90
12827;DHT22;66927;48.812;9.118;2024-01-15T00:26:00;-0.90;99.90
12827;DHT22;66927;48.812;9.118;2024-01-15T00:28:26;-0.70;99.90
12827;DHT22;66927;48.812;9.118;2024-01-15T00:30:51;-0.90;99.90
12827;DHT22;66927;48.812;9.118;2024-01-15T00:33:17;-1.00;99.90
12827;DHT22;66927;48.812;9.118;2024-01-15T00:35:43;-0.80;99.90
12827;DHT22;66927;48.812;9.118;2024-01-15T00:38:08;-1.00;99.90
12827;DHT22;66927;48.812;9.118;2024-01-15T00:40:34;-1.00;99.90
12827;DHT22;66927;48.812;9.118;2024-01-15T00:42:59;-1.00;99.90
12827;DHT22;66927;48.812;9.118;2024-01-15T00:45:25;-0.90;99.90
12827;DHT22;66927;48.812;9.118;2024-01-15T00:47:54;-0.90;99.90
12827;DHT22;66927;48.812;9.118;2024-01-15T00:50:21;-0.60;99.90
12827;DHT22;66927;48.812;9.118;2024-01-15T00:52:47;-0.90;99.90
12827;DHT22;66927;48.812;9.118;2024-01-15T00:55:13;-0.90;99.90
12827;DHT22;66927;48.812;9.118;2024-01-15T00:57:39;-0.90;99.90
12827;DHT22;66927;48.812;9.118;2024-01-15T01:00:05;-0.70;99.90
12827;DHT22;66927;48.812;9.118;2024-01-15T01:02:32;-0.80;99.90
12827;DHT22;66927;48.812;9.118;2024-01-15T01:04:57;-0.80;99.90
12827;DHT22;66927;48.812;9.118;2024-01-15T01:07:23;-0.90;99.90
12827;DHT22;66927;48.812;9.118;2024-01-15T01:09:48;-0.90;99.90
12827;DHT22;66927;48.812;9.118;2024-01-15T01:12:14;-0.90;99.90
12827;DHT22;66927;48.812;9.118;2024-01-15T01:14:40;-0.80;99.90
12827;DHT22;66927;48.812;9.118;2024-01-15T01:17:06;-0.80;99.90
12827;DHT22;66927;48.812;9.118;2024-01-15T01:19:31;-0.70;99.90
12827;DHT22;66927;48.812;9.118;2024-01-15T01:21:57;-0.60;99.90
12827;DHT22;66927;48.812;9.118;2024-01-15T01:24:22;-0.70;99.90
12827;DHT22;66927;48.812;9.118;2024-01-15T01:26:48;-0.60;99.90
12827;DHT22;66927;48.812;9.118;2024-01-15T01:29:14;-0.60;99.90
12827;DHT22;66927;48.812;9.118;2024-01-15T01:31:46;-0.60;99.90
12827;DHT22;66927;48.812;9.118;2024-01-15T01:34:16;-0.60;99.90
12827;DHT22;66927;48.812;9.118;2024-01-15T01:36:43;-0.60;99.90
12827;DHT22;66927;48.812;9.118;2024-01-15T01:39:09;-0.50;99.90
12827;DHT22;66927;48.812;9.118;2024-01-15T01:41:34;-0.60;99.90
12827;DHT22;66927;48.812;9.118;2024-01-15T01:44:00;-0.60;99.90
12827;DHT22;66927;48.812;9.118;2024-01-15T01:46:27;-0.50;99.90
12827;DHT22;66927;48.812;9.118;2024-01-15T01:48:54;-0.50;99.90
12827;DHT22;66927;48.812;9.118;2024-01-15T01:51:21;-0.50;99.90
12827;DHT22;66927;48.812;9.118;2024-01-15T01:53:49;-0.60;99.90
12827;DHT22;66927;48.812;9.118;2024-01-15T01:56:15;-0.50;99.90
12827;DHT22;66927;48.812;9.118;2024-01-15T01:58:42;-0.50;99.90
12827;DHT22;66927;48.812;9.118;2024-01-15T02:01:08;-0.30;99.90
12827;DHT22;66927;48.812;9.118;2024-01-15T02:03:34;-0.40;99.90
12827;DHT22;66927;48.812;9.118;2024-01-15T02:06:00;-0.20;99.90
12827;DHT22;66927;48.812;9.118;2024-01-15T02:08:26;-0.20;99.90
12827;DHT22;66927;48.812;9.118;2024-01-15T02:10:52;-0.30;99.90
12827;DHT22;66927;48.812;9.118;2024-01-15T02:13:18;-0.40;99.90
12827;DHT22;66927;48.812;9.118;2024-01-15T02:15:44;-0.40;99.90
12827;DHT22;66927;48.812;9.118;2024-01-15T02:18:10;-0.30;99.90
12827;DHT22;66927;48.812;9.118;2024-01-15T02:20:36;-0.40;99.90
12827;DHT22;66927;48.812;9.118;2024-01-15T02:25:33;-0.40;99.90
12827;DHT22;66927;48.812;9.118;2024-01-15T02:27:59;-0.50;99.90
12827;DHT22;66927;48.812;9.118;2024-01-15T02:30:25;-0.40;99.90
12827;DHT22;66927;48.812;9.118;2024-01-15T02:32:51;-0.40;99.90
12827;DHT22;66927;48.812;9.118;2024-01-15T02:35:18;-0.40;99.90
12827;DHT22;66927;48.812;9.118;2024-01-15T02:37:43;-0.20;99.90
12827;DHT22;66927;48.812;9.118;2024-01-15T02:40:09;-0.30;99.90
12827;DHT22;66927;48.812;9.118;2024-01-15T02:42:35;-0.40;99.90
12827;DHT22;66927;48.812;9.118;2024-01-15T02:45:00;-0.30;99.90
12827;DHT22;66927;48.812;9.118;2024-01-15T02:47:26;-0.20;99.90
12827;DHT22;66927;48.812;9.118;2024-01-15T02:49:51;-0.20;99.90
12827;DHT22;66927;48.812;9.118;2024-01-15T02:52:17;-0.30;99.90
12827;DHT22;66927;48.812;9.118;2024-01-15T02:54:43;-0.30;99.90
12827;DHT22;66927;48.812;9.118;2024-01-15T02:57:09;-0.30;99.90
12827;DHT22;66927;48.812;9.118;2024-01-15T02:59:34;-0.30;99.90
12827;DHT22;66927;48.812;9.118;2024-01-15T03:02:00;-0.40;99.90
12827;DHT22;66927;48.812;9.118;2024-01-15T03:04:25;-0.50;99.90
12827;DHT22;66927;48.812;9.118;2024-01-15T03:06:51;-0.50;99.90
12827;DHT22;66927;48.812;9.118;2024-01-15T03:09:17;-0.50;99.90
12827;DHT22;66927;48.812;9.118;2024-01-15T03:11:42;-0.50;99.90
12827;DHT22;66927;48.812;9.118;2024-01-15T03:14:08;-0.50;99.90
12827;DHT22;66927;48.812;9.118;2024-01-15T03:16:33;-0.40;99.90
12827;DHT22;66927;48.812;9.118;2024-01-15T03:19:00;-0.30;99.90
12827;DHT22;66927;48.812;9.118;2024-01-15T03:21:26;-0.40;99.90
12827;DHT22;66927;48.812;9.118;2024-01-15T03:23:52;-0.30;99.90
12827;DHT22;66927;48.812;9.118;2024-01-15T03:26:17;-0.40;99.90
12827;DHT22;66927;48.812;9.118;2024-01-15T03:28:43;-0.40;99.90
12827;DHT22;66927;48.812;9.118;2024-01-15T03:31:08;-0.30;99.90
12827;DHT22;66927;48.812;9.118;2024-01-15T03:33:34;-0.30;99.90
12827;DHT22;66927;48.812;9.118;2024-01-15T03:36:00;-0.20;99.90
12827;DHT22;66927;48.812;9.118;2024-01-15T03:38:28;-0.20;99.90
12827;DHT22;66927;48.812;9.118;2024-01-15T03:40:54;-0.10;99.90
12827;DHT22;66927;48.812;9.118;2024-01-15T03:43:19;-0.10;99.90
12827;DHT22;66927;48.812;9.118;2024-01-15T03:45:45;-0.20;99.90
12827;DHT22;66927;48.812;9.118;2024-01-15T03:48:11;-0.20;99.90
12827;DHT22;66927;48.812;9.118;2024-01-15T03:50:37;-0.20;99.90
12827;DHT22;66927;48.812;9.118;2024-01-15T03:53:02;-0.20;99.90
12827;DHT22;66927;48.812;9.118;2024-01-15T03:55:28;-0.20;99.90
12827;DHT22;66927;48.812;9.118;2024-01-15T03:57:54;-0.20;99.90
12827;DHT22;66927;48.812;9.118;2024-01-15T04:00:19;-0.10;99.90
12827;DHT22;66927;48.812;9.118;2024-01-15T04:02:45;-0.30;99.90
12827;DHT22;66927;48.812;9.118;2024-01-15T04:05:11;-0.30;99.90
12827;DHT22;66927;48.812;9.118;2024-01-15T04:07:36;-0.40;99.90
12827;DHT22;66927;48.812;9.118;2024-01-15T04:10:02;-0.30;99.90
12827;DHT22;66927;48.812;9.118;2024-01-15T04:12:28;-0.20;99.90
12827;DHT22;66927;48.812;9.118;2024-01-15T04:14:53;-0.20;99.90
12827;DHT22;66927;48.812;9.118;2024-01-15T04:17:19;-0.20;99.90
12827;DHT22;66927;48.812;9.118;2024-01-15T04:19:48;-0.30;99.90
12827;DHT22;66927;48.812;9.118;2024-01-15T04:22:14;-0.20;99.90
12827;DHT22;66927;48.812;9.118;2024-01-15T04:24:40;-0.10;99.90
12827;DHT22;66927;48.812;9.118;2024-01-15T04:27:07;-0.20;99.90
12827;DHT22;66927;48.812;9.118;2024-01-15T04:29:33;-0.10;99.90
12827;DHT22;66927;48.812;9.118;2024-01-15T04:31:59;-0.20;99.90
12827;DHT22;66927;48.812;9.118;2024-01-15T04:34:24;-0.20;99.90
12827;DHT22;66927;48.812;9.118;2024-01-15T04:36:50;0.00;99.90
12827;DHT22;66927;48.812;9.118;2024-01-15T04:39:15;-0.10;99.90
12827;DHT22;66927;48.812;9.118;2024-01-15T04:41:41;-0.10;99.90
12827;DHT22;66927;48.812;9.118;2024-01-15T04:44:07;0.00;99.90
12827;DHT22;66927;48.812;9.118;2024-01-15T04:46:32;0.00;99.90
12827;DHT22;66927;48.812;9.118;2024-01-15T04:48:58;0.10;99.90
12827;DHT22;66927;48.812;9.118;2024-01-15T04:51:23;0.00;99.90
12827;DHT22;66927;48.812;9.118;2024-01-15T04:53:49;0.00;99.90
12827;DHT22;66927;48.812;9.118;2024-01-15T04:56:15;0.20;99.90
12827;DHT22;66927;48.812;9.118;2024-01-15T04:58:40;0.00;99.90
12827;DHT22;66927;48.812;9.118;2024-01-15T05:01:08;0.00;99.90
12827;DHT22;66927;48.812;9.118;2024-01-15T05:03:34;0.00;99.90
12827;DHT22;66927;48.812;9.118;2024-01-15T05:05:59;0.00;99.90
12827;DHT22;66927;48.812;9.118;2024-01-15T05:08:25;0.00;99.90
12827;DHT22;66927;48.812;9.118;2024-01-15T05:10:50;0.00;99.90
12827;DHT22;66927;48.812;9.118;2024-01-15T05:13:16;0.10;99.90
12827;DHT22;66927;48.812;9.118;2024-01-15T05:15:42;0.30;99.90
12827;DHT22;66927;48.812;9.118;2024-01-15T05:18:07;0.10;99.90
12827;DHT22;66927;48.812;9.118;2024-01-15T05:20:33;0.00;99.90
12827;DHT22;66927;48.812;9.118;2024-01-15T05:22:58;0.10;99.90
12827;DHT22;66927;48.812;9.118;2024-01-15T05:25:24;0.10;99.90
12827;DHT22;66927;48.812;9.118;2024-01-15T05:27:50;0.00;99.90
12827;DHT22;66927;48.812;9.118;2024-01-15T05:30:16;0.10;99.90
12827;DHT22;66927;48.812;9.118;2024-01-15T05:32:41;0.20;99.90
12827;DHT22;66927;48.812;9.118;2024-01-15T05:35:07;0.20;99.90
12827;DHT22;66927;48.812;9.118;2024-01-15T05:37:33;0.20;99.90
12827;DHT22;66927;48.812;9.118;2024-01-15T05:39:58;0.20;99.90
12827;DHT22;66927;48.812;9.118;2024-01-15T05:42:24;0.30;99.90
12827;DHT22;66927;48.812;9.118;2024-01-15T05:44:50;0.10;99.90
12827;DHT22;66927;48.812;9.118;2024-01-15T05:47:15;0.10;99.90
12827;DHT22;66927;48.812;9.118;2024-01-15T05:49:41;0.20;99.90
12827;DHT22;66927;48.812;9.118;2024-01-15T05:52:08;0.20;99.90
12827;DHT22;66927;48.812;9.118;2024-01-15T05:54:33;0.20;99.90
12827;DHT22;66927;48.812;9.118;2024-01-15T05:56:59;0.20;99.90
12827;DHT22;66927;48.812;9.118;2024-01-15T05:59:24;0.30;99.90
12827;DHT22;66927;48.812;9.118;2024-01-15T06:01:50;0.40;99.90
12827;DHT22;66927;48.812;9.118;2024-01-15T06:04:16;0.10;99.90
12827;DHT22;66927;48.812;9.118;2024-01-15T06:06:42;0.20;99.90
12827;DHT22;66927;48.812;9.118;2024-01-15T06:09:07;0.20;99.90
12827;DHT22;66927;48.812;9.118;2024-01-15T06:11:34;0.20;99.90
12827;DHT22;66927;48.812;9.118;2024-01-15T06:14:00;0.30;99.90
12827;DHT22;66927;48.812;9.118;2024-01-15T06:16:29;0.20;99.90
12827;DHT22;66927;48.812;9.118;2024-01-15T06:18:57;0.30;99.90
12827;DHT22;66927;48.812;9.118;2024-01-15T06:21:24;0.30;99.90
12827;DHT22;66927;48.812;9.118;2024-01-15T06:23:49;0.20;99.90
12827;DHT22;66927;48.812;9.118;2024-01-15T06:26:15;0.30;99.90
12827;DHT22;66927;48.812;9.118;2024-01-15T06:28:42;0.30;99.90
12827;DHT22;66927;48.812;9.118;2024-01-15T06:31:08;0.20;99.90
12827;DHT22;66927;48.812;9.118;2024-01-15T06:33:34;0.30;99.90
12827;DHT22;66927;48.812;9.118;2024-01-15T06:36:00;0.30;99.90
12827;DHT22;66927;48.812;9.118;2024-01-15T06:38:25;0.10;99.90
12827;DHT22;66927;48.812;9.118;2024-01-15T06:40:51;0.20;99.90
12827;DHT22;66927;48.812;9.118;2024-01-15T06:43:17;0.20;99.90
12827;DHT22;66927;48.812;9.118;2024-01-15T06:45:44;0.30;99.90
12827;DHT22;66927;48.812;9.118;2024-01-15T06:48:09;0.30;99.90
12827;DHT22;66927;48.812;9.118;2024-01-15T06:50:35;0.20;99.90
12827;DHT22;66927;48.812;9.118;2024-01-15T06:53:02;0.40;99.90
12827;DHT22;66927;48.812;9.118;2024-01-15T06:55:28;0.20;99.90
12827;DHT22;66927;48.812;9.118;2024-01-15T06:57:58;0.20;99.90
12827;DHT22;66927;48.812;9.118;2024-01-15T07:00:23;0.30;99.90
12827;DHT22;66927;48.812;9.118;2024-01-15T07:02:49;0.40;99.90
12827;DHT22;66927;48.812;9.118;2024-01-15T07:05:15;0.20;99.90
12827;DHT22;66927;48.812;9.118;2024-01-15T07:07:41;0.50;99.90
12827;DHT22;66927;48.812;9.118;2024-01-15T07:10:07;0.30;99.90
12827;DHT22;66927;48.812;9.118;2024-01-15T07:12:33;0.30;99.90
12827;DHT22;66927;48.812;9.118;2024-01-15T07:14:59;0.60;99.90
12827;DHT22;66927;48.812;9.118;2024-01-15T07:17:24;0.30;99.90
12827;DHT22;66927;48.812;9.118;2024-01-15T07:19:50;0.50;99.90
12827;DHT22;66927;48.812;9.118;2024-01-15T07:22:15;0.40;99.90
12827;DHT22;66927;48.812;9.118;2024-01-15T07:24:43;0.30;99.90
12827;DHT22;66927;48.812;9.118;2024-01-15T07:27:09;0.30;99.90
12827;DHT22;66927;48.812;9.118;2024-01-15T07:29:35;0.30;99.90
12827;DHT22;66927;48.812;9.118;2024-01-15T07:32:04;0.20;99.90
12827;DHT22;66927;48.812;9.118;2024-01-15T07:34:30;0.30;99.90
12827;DHT22;66927;48.812;9.118;2024-01-15T07:36:57;0.20;99.90
12827;DHT22;66927;48.812;9.118;2024-01-15T07:39:23;0.20;99.90
12827;DHT22;66927;48.812;9.118;2024-01-15T07:41:50;0.40;99.90
12827;DHT22;66927;48.812;9.118;2024-01-15T07:44:16;0.30;99.90
12827;DHT22;66927;48.812;9.118;2024-01-15T07:46:46;0.30;99.90
12827;DHT22;66927;48.812;9.118;2024-01-15T07:49:13;0.30;99.90
12827;DHT22;66927;48.812;9.118;2024-01-15T07:51:39;0.30;99.90
12827;DHT22;66927;48.812;9.118;2024-01-15T07:54:06;0.30;99.90
12827;DHT22;66927;48.812;9.118;2024-01-15T07:56:32;0.30;99.90
12827;DHT22;66927;48.812;9.118;2024-01-15T07:58:58;0.30;99.90
12827;DHT22;66927;48.812;9.118;2024-01-15T08:01:23;0.30;99.90
12827;DHT22;66927;48.812;9.118;2024-01-15T08:03:49;0.40;99.90
12827;DHT22;66927;48.812;9.118;2024-01-15T08:06:15;0.50;99.90
12827;DHT22;66927;48.812;9.118;2024-01-15T08:08:41;0.30;99.90
12827;DHT22;66927;48.812;9.118;2024-01-15T08:11:06;0.40;99.90
12827;DHT22;66927;48.812;9.118;2024-01-15T08:13:32;0.40;99.90
12827;DHT22;66927;48.812;9.118;2024-01-15T08:15:58;0.50;99.90
12827;DHT22;66927;48.812;9.118;2024-01-15T08:18:23;0.50;99.90
12827;DHT22;66927;48.812;9.118;2024-01-15T08:20:49;0.50;99.90
12827;DHT22;66927;48.812;9.118;2024-01-15T08:23:16;0.70;99.90
12827;DHT22;66927;48.812;9.118;2024-01-15T08:25:42;0.60;99.90
12827;DHT22;66927;48.812;9.118;2024-01-15T08:28:08;0.60;99.90
12827;DHT22;66927;48.812;9.118;2024-01-15T08:30:34;0.50;99.90
12827;DHT22;66927;48.812;9.118;2024-01-15T08:33:00;0.70;99.90
12827;DHT22;66927;48.812;9.118;2024-01-15T08:35:26;0.60;99.90
12827;DHT22;66927;48.812;9.118;2024-01-15T08:37:54;0.60;99.90
12827;DHT22;66927;48.812;9.118;2024-01-15T08:40:20;0.60;99.90
12827;DHT22;66927;48.812;9.118;2024-01-15T08:42:46;0.60;99.90
12827;DHT22;66927;48.812;9.118;2024-01-15T08:45:12;0.70;99.90
12827;DHT22;66927;48.812;9.118;2024-01-15T08:47:38;0.60;99.90
12827;DHT22;66927;48.812;9.118;2024-01-15T08:50:04;0.60;99.90
12827;DHT22;66927;48.812;9.118;2024-01-15T08:52:30;0.60;99.90
12827;DHT22;66927;48.812;9.118;2024-01-15T08:54:59;0.60;99.90
12827;DHT22;66927;48.812;9.118;2024-01-15T08:57:24;0.80;99.90
12827;DHT22;66927;48.812;9.118;2024-01-15T08:59:50;0.70;99.90
12827;DHT22;66927;48.812;9.118;2024-01-15T09:02:16;0.70;99.90
12827;DHT22;66927;48.812;9.118;2024-01-15T09:04:42;0.80;99.90
12827;DHT22;66927;48.812;9.118;2024-01-15T09:07:08;0.80;99.90
12827;DHT22;66927;48.812;9.118;2024-01-15T09:09:33;1.00;99.90
12827;DHT22;66927;48.812;9.118;2024-01-15T09:12:00;0.80;99.90
12827;DHT22;66927;48.812;9.118;2024-01-15T09:14:26;1.00;99.90
12827;DHT22;66927;48.812;9.118;2024-01-15T09:16:54;0.90;99.90
12827;DHT22;66927;48.812;9.118;2024-01-15T09:19:20;1.10;99.90
12827;DHT22;66927;48.812;9.118;2024-01-15T09:21:45;0.90;99.90
12827;DHT22;66927;48.812;9.118;2024-01-15T09:24:11;1.00;99.90
12827;DHT22;66927;48.812;9.118;2024-01-15T09:26:36;1.00;99.90
12827;DHT22;66927;48.812;9.118;2024-01-15T09:29:02;1.10;99.90
12827;DHT22;66927;48.812;9.118;2024-01-15T09:31:29;1.00;99.90
12827;DHT22;66927;48.812;9.118;2024-01-15T09:33:55;1.10;99.90
12827;DHT22;66927;48.812;9.118;2024-01-15T09:36:22;1.10;99.90
12827;DHT22;66927;48.812;9.118;2024-01-15T09:38:51;0.90;99.90
12827;DHT22;66927;48.812;9.118;2024-01-15T09:41:17;1.00;99.90
12827;DHT22;66927;48.812;9.118;2024-01-15T09:43:43;1.00;99.90
12827;DHT22;66927;48.812;9.118;2024-01-15T09:46:08;0.90;99.90
12827;DHT22;66927;48.812;9.118;2024-01-15T09:48:34;1.10;99.90
12827;DHT22;66927;48.812;9.118;2024-01-15T09:51:04;1.00;99.90
12827;DHT22;66927;48.812;9.118;2024-01-15T09:53:31;1.00;99.90
12827;DHT22;66927;48.812;9.118;2024-01-15T09:55:58;1.10;99.90
12827;DHT22;66927;48.812;9.118;2024-01-15T09:58:23;1.10;99.90
12827;DHT22;66927;48.812;9.118;2024-01-15T10:00:51;0.80;99.90
12827;DHT22;66927;48.812;9.118;2024-01-15T10:03:17;1.10;99.90
12827;DHT22;66927;48.812;9.118;2024-01-15T10:05:44;1.10;99.90
12827;DHT22;66927;48.812;9.118;2024-01-15T10:08:10;1.10;99.90
12827;DHT22;66927;48.812;9.118;2024-01-15T10:10:37;1.10;99.90
12827;DHT22;66927;48.812;9.118;2024-01-15T10:13:03;1.10;99.90
12827;DHT22;66927;48.812;9.118;2024-01-15T10:15:29;1.30;99.90
12827;DHT22;66927;48.812;9.118;2024-01-15T10:17:59;1.20;99.90
12827;DHT22;66927;48.812;9.118;2024-01-15T10:20:24;1.10;99.90
12827;DHT22;66927;48.812;9.118;2024-01-15T10:22:50;1.10;99.90
12827;DHT22;66927;48.812;9.118;2024-01-15T10:25:16;1.10;99.90
12827;DHT22;66927;48.812;9.118;2024-01-15T10:28:02;1.10;99.90
12827;DHT22;66927;48.812;9.118;2024-01-15T10:30:28;1.10;99.90
12827;DHT22;66927;48.812;9.118;2024-01-15T10:33:02;1.10;99.90
12827;DHT22;66927;48.812;9.118;2024-01-15T10:35:33;1.10;99.90
12827;DHT22;66927;48.812;9.118;2024-01-15T10:38:00;1.20;99.90
12827;DHT22;66927;48.812;9.118;2024-01-15T10:40:26;1.20;99.90
12827;DHT22;66927;48.812;9.118;2024-01-15T10:42:52;1.30;99.90
12827;DHT22;66927;48.812;9.118;2024-01-15T10:45:18;1.40;99.90
12827;DHT22;66927;48.812;9.118;2024-01-15T10:47:44;1.20;99.90
12827;DHT22;66927;48.812;9.118;2024-01-15T10:50:10;1.20;99.90
12827;DHT22;66927;48.812;9.118;2024-01-15T10:52:37;1.40;99.90
12827;DHT22;66927;48.812;9.118;2024-01-15T10:55:03;1.30;99.90
12827;DHT22;66927;48.812;9.118;2024-01-15T10:57:29;1.30;99.90
12827;DHT22;66927;48.812;9.118;2024-01-15T10:59:55;1.20;99.90
12827;DHT22;66927;48.812;9.118;2024-01-15T11:02:21;1.30;99.90
12827;DHT22;66927;48.812;9.118;2024-01-15T11:04:47;1.30;99.90
12827;DHT22;66927;48.812;9.118;2024-01-15T11:07:13;1.40;99.90
12827;DHT22;66927;48.812;9.118;2024-01-15T11:09:39;1.30;99.90
12827;DHT22;66927;48.812;9.118;2024-01-15T11:12:12;1.30;99.90
12827;DHT22;66927;48.812;9.118;2024-01-15T11:14:48;1.20;99.90
12827;DHT22;66927;48.812;9.118;2024-01-15T11:17:15;1.20;99.90
12827;DHT22;66927;48.812;9.118;2024-01-15T11:22:08;1.20;99.90
12827;DHT22;66927;48.812;9.118;2024-01-15T11:24:39;1.00;99.90
12827;DHT22;66927;48.812;9.118;2024-01-15T11:27:07;1.00;99.90
12827;DHT22;66927;48.812;9.118;2024-01-15T11:29:37;1.10;99.90
12827;DHT22;66927;48.812;9.118;2024-01-15T11:32:07;1.00;99.90
12827;DHT22;66927;48.812;9.118;2024-01-15T11:34:59;0.90;99.90
12827;DHT22;66927;48.812;9.118;2024-01-15T11:37:28;0.90;99.90
12827;DHT22;66927;48.812;9.118;2024-01-15T11:40:00;1.00;99.90
12827;DHT22;66927;48.812;9.118;2024-01-15T11:42:26;1.10;99.90
12827;DHT22;66927;48.812;9.118;2024-01-15T11:44:53;1.10;99.90
12827;DHT22;66927;48.812;9.118;2024-01-15T11:47:40;1.10;99.90
12827;DHT22;66927;48.812;9.118;2024-01-15T11:50:17;1.10;99.90
12827;DHT22;66927;48.812;9.118;2024-01-15T11:52:51;1.00;99.90
12827;DHT22;66927;48.812;9.118;2024-01-15T11:55:26;1.00;99.90
12827;DHT22;66927;48.812;9.118;2024-01-15T11:57:54;0.90;99.90
12827;DHT22;66927;48.812;9.118;2024-01-15T12:00:23;0.80;99.90
12827;DHT22;66927;48.812;9.118;2024-01-15T12:02:50;0.90;99.90
12827;DHT22;66927;48.812;9.118;2024-01-15T12:05:17;0.90;99.90
12827;DHT22;66927;48.812;9.118;2024-01-15T12:07:45;0.70;99.90
12827;DHT22;66927;48.812;9.118;2024-01-15T12:10:12;0.80;99.90
12827;DHT22;66927;48.812;9.118;2024-01-15T12:12:59;0.90;99.90
12827;DHT22;66927;48.812;9.118;2024-01-15T12:15:29;0.80;99.90
12827;DHT22;66927;48.812;9.118;2024-01-15T12:18:02;0.80;99.90
12827;DHT22;66927;48.812;9.118;2024-01-15T12:20:29;0.80;99.90
12827;DHT22;66927;48.812;9.118;2024-01-15T12:22:55;0.80;99.90
12827;DHT22;66927;48.812;9.118;2024-01-15T12:25:23;0.80;99.90
12827;DHT22;66927;48.812;9.118;2024-01-15T12:27:50;0.80;99.90
12827;DHT22;66927;48.812;9.118;2024-01-15T12:30:16;0.90;99.90
12827;DHT22;66927;48.812;9.118;2024-01-15T12:32:44;0.80;99.90
12827;DHT22;66927;48.812;9.118;2024-01-15T12:35:13;0.90;99.90
12827;DHT22;66927;48.812;9.118;2024-01-15T12:37:40;0.80;99.90
12827;DHT22;66927;48.812;9.118;2024-01-15T12:40:08;0.80;99.90
12827;DHT22;66927;48.812;9.118;2024-01-15T12:42:39;0.80;99.90
12827;DHT22;66927;48.812;9.118;2024-01-15T12:45:06;0.90;99.90
12827;DHT22;66927;48.812;9.118;2024-01-15T12:47:32;0.80;99.90
12827;DHT22;66927;48.812;9.118;2024-01-15T12:49:59;0.80;99.90
12827;DHT22;66927;48.812;9.118;2024-01-15T12:52:29;0.70;99.90
12827;DHT22;66927;48.812;9.118;2024-01-15T12:54:55;0.70;99.90
12827;DHT22;66927;48.812;9.118;2024-01-15T12:57:20;0.80;99.90
12827;DHT22;66927;48.812;9.118;2024-01-15T12:59:46;0.60;99.90
12827;DHT22;66927;48.812;9.118;2024-01-15T13:02:13;0.70;99.90
12827;DHT22;66927;48.812;9.118;2024-01-15T13:04:38;0.90;99.90
12827;DHT22;66927;48.812;9.118;2024-01-15T13:07:05;0.80;99.90
12827;DHT22;66927;48.812;9.118;2024-01-15T13:09:31;0.80;99.90
12827;DHT22;66927;48.812;9.118;2024-01-15T13:11:58;0.80;99.90
12827;DHT22;66927;48.812;9.118;2024-01-15T13:14:24;1.00;99.90
12827;DHT22;66927;48.812;9.118;2024-01-15T13:16:49;0.90;99.90
12827;DHT22;66927;48.812;9.118;2024-01-15T13:19:15;0.80;99.90
12827;DHT22;66927;48.812;9.118;2024-01-15T13:21:41;0.70;99.90
12827;DHT22;66927;48.812;9.118;2024-01-15T13:24:08;0.70;99.90
12827;DHT22;66927;48.812;9.118;2024-01-15T13:26:34;0.70;99.90
12827;DHT22;66927;48.812;9.118;2024-01-15T13:29:02;0.70;99.90
12827;DHT22;66927;48.812;9.118;2024-01-15T13:31:29;0.80;99.90
12827;DHT22;66927;48.812;9.118;2024-01-15T13:33:56;0.80;99.90
12827;DHT22;66927;48.812;9.118;2024-01-15T13:36:25;0.70;99.90
12827;DHT22;66927;48.812;9.118;2024-01-15T13:38:52;0.90;99.90
12827;DHT22;66927;48.812;9.118;2024-01-15T13:41:22;0.80;99.90
12827;DHT22;66927;48.812;9.118;2024-01-15T13:43:55;0.80;99.90
12827;DHT22;66927;48.812;9.118;2024-01-15T13:46:24;0.90;99.90
12827;DHT22;66927;48.812;9.118;2024-01-15T13:48:50;0.90;99.90
12827;DHT22;66927;48.812;9.118;2024-01-15T13:51:16;1.00;99.90
12827;DHT22;66927;48.812;9.118;2024-01-15T13:53:41;0.90;99.90
12827;DHT22;66927;48.812;9.118;2024-01-15T13:56:07;1.00;99.90
12827;DHT22;66927;48.812;9.118;2024-01-15T13:58:35;1.10;99.90
12827;DHT22;66927;48.812;9.118;2024-01-15T14:01:00;1.00;99.90
12827;DHT22;66927;48.812;9.118;2024-01-15T14:03:26;0.90;99.90
12827;DHT22;66927;48.812;9.118;2024-01-15T14:05:52;1.10;99.90
12827;DHT22;66927;48.812;9.118;2024-01-15T14:08:18;1.20;99.90
12827;DHT22;66927;48.812;9.118;2024-01-15T14:10:43;1.00;99.90
12827;DHT22;66927;48.812;9.118;2024-01-15T14:13:10;0.90;99.90
12827;DHT22;66927;48.812;9.118;2024-01-15T14:15:35;0.90;99.90
12827;DHT22;66927;48.812;9.118;2024-01-15T14:18:01;0.90;99.90
12827;DHT22;66927;48.812;9.118;2024-01-15T14:20:26;0.90;99.90
12827;DHT22;66927;48.812;9.118;2024-01-15T14:22:53;1.10;99.90
12827;DHT22;66927;48.812;9.118;2024-01-15T14:25:20;0.90;99.90
12827;DHT22;66927;48.812;9.118;2024-01-15T14:27:45;0.90;99.90
12827;DHT22;66927;48.812;9.118;2024-01-15T14:30:11;1.00;99.90
12827;DHT22;66927;48.812;9.118;2024-01-15T14:32:38;0.90;99.90
12827;DHT22;66927;48.812;9.118;2024-01-15T14:35:05;0.90;99.90
12827;DHT22;66927;48.812;9.118;2024-01-15T14:37:34;0.90;99.90
12827;DHT22;66927;48.812;9.118;2024-01-15T14:40:00;0.80;99.90
12827;DHT22;66927;48.812;9.118;2024-01-15T14:42:25;0.80;99.90
12827;DHT22;66927;48.812;9.118;2024-01-15T14:44:51;0.70;99.90
12827;DHT22;66927;48.812;9.118;2024-01-15T14:47:17;0.70;99.90
12827;DHT22;66927;48.812;9.118;2024-01-15T14:49:42;0.60;99.90
12827;DHT22;66927;48.812;9.118;2024-01-15T14:52:08;0.50;99.90
12827;DHT22;66927;48.812;9.118;2024-01-15T14:54:33;0.50;99.90
12827;DHT22;66927;48.812;9.118;2024-01-15T14:57:00;0.50;99.90
12827;DHT22;66927;48.812;9.118;2024-01-15T14:59:26;0.60;99.90
12827;DHT22;66927;48.812;9.118;2024-01-15T15:01:55;0.50;99.90
12827;DHT22;66927;48.812;9.118;2024-01-15T15:04:22;0.50;99.90
12827;DHT22;66927;48.812;9.118;2024-01-15T15:06:47;0.70;99.90
12827;DHT22;66927;48.812;9.118;2024-01-15T15:09:14;0.50;99.90
12827;DHT22;66927;48.812;9.118;2024-01-15T15:11:39;0.50;99.90
12827;DHT22;66927;48.812;9.118;2024-01-15T15:14:06;0.60;99.90
12827;DHT22;66927;48.812;9.118;2024-01-15T15:16:32;0.70;99.90
12827;DHT22;66927;48.812;9.118;2024-01-15T15:18:58;0.60;99.90
12827;DHT22;66927;48.812;9.118;2024-01-15T15:21:23;0.60;99.90
12827;DHT22;66927;48.812;9.118;2024-01-15T15:23:49;0.70;99.90
12827;DHT22;66927;48.812;9.118;2024-01-15T15:26:14;0.80;99.90
12827;DHT22;66927;48.812;9.118;2024-01-15T15:28:40;0.80;99.90
12827;DHT22;66927;48.812;9.118;2024-01-15T15:31:06;0.60;99.90
12827;DHT22;66927;48.812;9.118;2024-01-15T15:33:37;0.60;99.90
12827;DHT22;66927;48.812;9.118;2024-01-15T15:36:02;0.60;99.90
12827;DHT22;66927;48.812;9.118;2024-01-15T15:38:31;0.60;99.90
12827;DHT22;66927;48.812;9.118;2024-01-15T15:40:56;0.60;99.90
12827;DHT22;66927;48.812;9.118;2024-01-15T15:43:22;0.70;99.90